Time;durP1;ratioP1;P1;durP2;ratioP2;P2;SDS_P1;SDS_P2;PMS_P1;PMS_P2;Temp;Humidity;BMP_temperature;BMP_pressure;BME280_temperature;BME280_humidity;BME280_pressure;Samples;Min_cycle;Max_cycle;Signal;HPM_P1;HPM_P2
2023/12/07 00:02:21;;;;;;;12.35;3.70;;;28.20;99.90;;;;;;5014469;28;20195;-78
2023/12/07 00:04:52;;;;;;;10.65;4.13;;;28.30;99.90;;;;;;5014887;28;20187;-77
2023/12/07 00:07:22;;;;;;;11.93;4.28;;;28.40;99.90;;;;;;5015735;28;20187;-77
2023/12/07 00:09:53;;;;;;;10.27;4.00;;;28.40;99.90;;;;;;5014688;28;20191;-77
2023/12/07 00:12:24;;;;;;;13.48;4.20;;;28.50;99.90;;;;;;5014738;28;20330;-77
2023/12/07 00:14:55;;;;;;;10.52;3.97;;;28.70;99.90;;;;;;5014662;28;20187;-78
2023/12/07 00:17:27;;;;;;;11.98;4.20;;;28.70;99.90;;;;;;5015462;28;20246;-77
2023/12/07 00:19:58;;;;;;;10.90;3.97;;;28.80;99.90;;;;;;5015644;28;20573;-75
2023/12/07 00:22:29;;;;;;;10.93;4.00;;;28.90;99.90;;;;;;5015518;28;20191;-76
2023/12/07 00:25:00;;;;;;;11.20;3.95;;;29.00;99.90;;;;;;5015577;28;20265;-78
2023/12/07 00:27:30;;;;;;;10.07;3.92;;;29.10;99.90;;;;;;5015515;28;20556;-76
2023/12/07 00:30:09;;;;;;;9.93;3.97;;;29.20;99.90;;;;;;5014842;28;20261;-78
2023/12/07 00:32:43;;;;;;;12.23;4.55;;;29.40;99.90;;;;;;5015683;28;20195;-78
2023/12/07 00:35:14;;;;;;;15.32;5.35;;;29.60;99.90;;;;;;5013254;28;20724;-79
2023/12/07 00:37:45;;;;;;;13.93;4.90;;;29.50;99.90;;;;;;5014546;28;20234;-79
2023/12/07 00:40:16;;;;;;;14.45;4.90;;;29.30;99.90;;;;;;5013214;28;20199;-78
2023/12/07 00:42:47;;;;;;;17.15;5.40;;;28.90;99.90;;;;;;5014661;28;20202;-78
2023/12/07 00:45:18;;;;;;;16.52;5.43;;;28.50;99.90;;;;;;5014775;28;20298;-76
2023/12/07 00:47:50;;;;;;;14.35;5.47;;;27.90;99.90;;;;;;5007306;28;20200;-79
2023/12/07 00:50:21;;;;;;;17.13;5.70;;;27.40;99.90;;;;;;5013284;28;20302;-78
2023/12/07 00:52:52;;;;;;;17.73;5.60;;;27.30;99.90;;;;;;5014190;28;20238;-77
2023/12/07 00:55:23;;;;;;;18.05;5.70;;;27.30;99.90;;;;;;5008189;28;20183;-79
2023/12/07 00:57:53;;;;;;;16.15;5.18;;;27.20;99.90;;;;;;5014366;28;20219;-78
2023/12/07 01:00:24;;;;;;;13.40;5.13;;;26.80;99.90;;;;;;5014292;28;20229;-77
2023/12/07 01:02:57;;;;;;;15.70;5.85;;;26.30;99.90;;;;;;5014212;28;20282;-77
2023/12/07 01:05:28;;;;;;;15.32;5.75;;;26.10;99.90;;;;;;5014061;28;20199;-78
2023/12/07 01:07:59;;;;;;;17.83;5.95;;;26.20;99.90;;;;;;5014049;28;20191;-77
2023/12/07 01:10:29;;;;;;;19.17;6.20;;;26.20;99.90;;;;;;5014475;28;20226;-78
2023/12/07 01:13:01;;;;;;;15.55;6.07;;;26.20;99.90;;;;;;5014786;28;20286;-78
2023/12/07 01:15:31;;;;;;;18.45;5.90;;;26.50;99.90;;;;;;5013159;28;20252;-77
2023/12/07 01:18:04;;;;;;;17.15;5.50;;;26.50;99.90;;;;;;4994946;28;20219;-77
2023/12/07 01:20:35;;;;;;;20.95;6.57;;;26.40;99.90;;;;;;5013768;28;20273;-76
2023/12/07 01:23:05;;;;;;;15.35;5.22;;;26.50;99.90;;;;;;5014587;28;20201;-77
2023/12/07 01:25:36;;;;;;;14.65;5.25;;;26.50;99.90;;;;;;5014148;28;20195;-76
2023/12/07 01:28:07;;;;;;;16.48;6.07;;;26.80;99.90;;;;;;5009178;28;20200;-76
2023/12/07 01:30:38;;;;;;;15.52;5.75;;;26.90;99.90;;;;;;5004232;28;20244;-76
2023/12/07 01:33:11;;;;;;;21.00;6.18;;;27.20;99.90;;;;;;5011614;28;20316;-77
2023/12/07 01:35:42;;;;;;;16.08;5.90;;;27.10;99.90;;;;;;5006221;28;20581;-76
2023/12/07 01:38:13;;;;;;;16.67;5.38;;;26.90;99.90;;;;;;5012453;28;20215;-76
2023/12/07 01:40:44;;;;;;;15.93;5.82;;;26.90;99.90;;;;;;5013147;28;20199;-76
2023/12/07 01:43:15;;;;;;;18.35;5.82;;;26.80;99.90;;;;;;5013315;28;20539;-76
2023/12/07 01:45:46;;;;;;;14.40;5.50;;;26.80;99.90;;;;;;5013318;28;20203;-77
2023/12/07 01:48:18;;;;;;;17.10;6.20;;;26.60;99.90;;;;;;5012541;28;20199;-77
2023/12/07 01:50:50;;;;;;;14.40;5.63;;;26.70;99.90;;;;;;5013445;28;20286;-76
2023/12/07 01:53:21;;;;;;;19.42;5.57;;;27.00;99.90;;;;;;5008433;28;20195;-77
2023/12/07 01:55:53;;;;;;;14.13;5.45;;;26.80;99.90;;;;;;5013352;28;20195;-77
2023/12/07 01:58:24;;;;;;;16.05;5.78;;;26.70;99.90;;;;;;5010402;28;20220;-77
2023/12/07 02:00:55;;;;;;;16.75;5.75;;;26.70;99.90;;;;;;5016521;28;20217;-76
2023/12/07 02:03:29;;;;;;;18.00;5.80;;;26.90;99.90;;;;;;5012480;28;20577;-76
2023/12/07 02:06:02;;;;;;;15.23;5.88;;;27.20;99.90;;;;;;5012637;28;20217;-76
2023/12/07 02:08:33;;;;;;;13.25;5.15;;;27.30;99.90;;;;;;5012979;28;20195;-77
2023/12/07 02:11:04;;;;;;;18.15;5.53;;;27.40;99.90;;;;;;5013681;28;20556;-76
2023/12/07 02:13:35;;;;;;;16.67;5.75;;;27.70;99.90;;;;;;5012532;28;20294;-78
2023/12/07 02:16:10;;;;;;;13.43;5.90;;;27.70;99.90;;;;;;5013186;28;20207;-78
2023/12/07 02:18:51;;;;;;;15.57;5.90;;;27.80;99.90;;;;;;5013060;28;20214;-78
2023/12/07 02:21:32;;;;;;;19.65;6.63;;;27.70;99.90;;;;;;5012697;28;20198;-77
2023/12/07 02:24:05;;;;;;;14.48;5.32;;;27.70;99.90;;;;;;5013043;28;20198;-76
2023/12/07 02:26:39;;;;;;;19.98;5.90;;;27.50;99.90;;;;;;5000716;28;20206;-76
2023/12/07 02:29:10;;;;;;;14.20;5.13;;;27.20;99.90;;;;;;5006980;28;20230;-79
2023/12/07 02:31:40;;;;;;;14.70;5.25;;;27.10;99.90;;;;;;5009619;28;20226;-76
2023/12/07 02:34:11;;;;;;;12.13;4.60;;;27.00;99.90;;;;;;5012376;28;20684;-78
2023/12/07 02:36:44;;;;;;;13.52;4.75;;;26.80;99.90;;;;;;5012797;28;20215;-77
2023/12/07 02:39:16;;;;;;;12.52;4.90;;;26.50;99.90;;;;;;5008933;28;20271;-77
2023/12/07 02:41:50;;;;;;;23.23;5.20;;;26.60;99.90;;;;;;5012587;28;20194;-77
2023/12/07 02:44:21;;;;;;;17.40;5.05;;;26.70;99.90;;;;;;5012520;28;20186;-76
2023/12/07 02:46:52;;;;;;;15.40;5.00;;;26.70;99.90;;;;;;5012587;28;20214;-77
2023/12/07 02:49:23;;;;;;;16.38;4.68;;;26.60;99.90;;;;;;5009434;28;20195;-76
2023/12/07 02:51:53;;;;;;;13.48;4.97;;;26.50;99.90;;;;;;5012675;28;20187;-78
2023/12/07 02:54:24;;;;;;;13.93;4.43;;;26.50;99.90;;;;;;5013338;28;20190;-77
2023/12/07 02:56:57;;;;;;;13.55;4.45;;;26.50;99.90;;;;;;5011351;28;20219;-78
2023/12/07 02:59:28;;;;;;;17.20;4.70;;;26.50;99.90;;;;;;5008809;28;20199;-78
2023/12/07 03:01:58;;;;;;;13.52;4.43;;;26.30;99.90;;;;;;5012838;28;20576;-77
2023/12/07 03:04:29;;;;;;;12.65;4.70;;;26.20;99.90;;;;;;5013211;28;20195;-76
2023/12/07 03:07:00;;;;;;;13.48;4.75;;;26.10;99.90;;;;;;5012850;28;20568;-77
2023/12/07 03:09:31;;;;;;;16.13;5.00;;;26.10;99.90;;;;;;5005560;28;20197;-78
2023/12/07 03:12:03;;;;;;;13.43;4.80;;;26.20;99.90;;;;;;5013249;28;20187;-78
2023/12/07 03:14:34;;;;;;;18.25;4.68;;;26.30;99.90;;;;;;5013156;28;20549;-77
2023/12/07 03:17:05;;;;;;;17.45;5.70;;;26.30;99.90;;;;;;5011894;28;20569;-78
2023/12/07 03:19:40;;;;;;;15.48;5.03;;;26.30;99.90;;;;;;5009500;28;20559;-77
2023/12/07 03:22:10;;;;;;;14.60;5.60;;;26.40;99.90;;;;;;5012986;28;20233;-77
2023/12/07 03:24:42;;;;;;;18.67;7.05;;;26.50;99.90;;;;;;5012534;28;20568;-77
2023/12/07 03:27:15;;;;;;;15.88;7.32;;;26.70;99.90;;;;;;5013050;28;20195;-76
2023/12/07 03:29:46;;;;;;;18.58;7.63;;;26.80;99.90;;;;;;5013120;28;20274;-76
2023/12/07 03:32:17;;;;;;;17.08;7.65;;;26.80;99.90;;;;;;5012330;28;20218;-78
2023/12/07 03:34:48;;;;;;;21.70;8.15;;;26.90;99.90;;;;;;5008660;28;20214;-75
2023/12/07 03:37:18;;;;;;;20.48;8.63;;;26.90;99.90;;;;;;5005709;28;20682;-76
2023/12/07 03:39:49;;;;;;;20.65;9.30;;;26.90;99.90;;;;;;5012683;28;20192;-78
2023/12/07 03:42:22;;;;;;;21.05;9.23;;;26.90;99.90;;;;;;5012504;28;20191;-79
2023/12/07 03:44:53;;;;;;;19.27;8.25;;;26.90;99.90;;;;;;5015283;28;20191;-77
2023/12/07 03:47:23;;;;;;;17.40;8.38;;;27.00;99.90;;;;;;5016267;28;20674;-75
2023/12/07 03:49:54;;;;;;;17.40;8.70;;;26.90;99.90;;;;;;5015702;28;20202;-79
2023/12/07 03:52:25;;;;;;;20.63;8.32;;;26.90;99.90;;;;;;5015648;28;20191;-79
2023/12/07 03:54:56;;;;;;;15.68;7.60;;;26.90;99.90;;;;;;5015883;28;20191;-78
2023/12/07 03:57:28;;;;;;;16.02;7.63;;;26.80;99.90;;;;;;5015365;28;20302;-77
2023/12/07 03:59:59;;;;;;;20.33;8.60;;;26.80;99.90;;;;;;5015381;28;20195;-77
2023/12/07 04:02:32;;;;;;;18.70;8.07;;;26.70;99.90;;;;;;5014804;28;20191;-76
2023/12/07 04:05:03;;;;;;;16.75;7.68;;;26.50;99.90;;;;;;5014450;28;20666;-79
2023/12/07 04:07:34;;;;;;;20.08;7.05;;;26.60;99.90;;;;;;5016003;28;20538;-79
2023/12/07 04:10:06;;;;;;;18.17;7.25;;;26.60;99.90;;;;;;5015213;28;20191;-78
2023/12/07 04:12:38;;;;;;;16.60;6.07;;;26.60;99.90;;;;;;5015884;28;20280;-79
2023/12/07 04:15:10;;;;;;;17.20;4.47;;;26.70;99.90;;;;;;5015617;28;20665;-79
2023/12/07 04:17:40;;;;;;;17.05;4.47;;;26.70;99.90;;;;;;5015717;28;20214;-80
2023/12/07 04:20:12;;;;;;;15.90;4.05;;;26.80;99.90;;;;;;5015924;28;20724;-77
2023/12/07 04:22:44;;;;;;;14.43;4.10;;;26.60;99.90;;;;;;5014351;28;20547;-79
2023/12/07 04:25:15;;;;;;;18.77;4.07;;;26.50;99.90;;;;;;5015831;28;20662;-76
2023/12/07 04:27:47;;;;;;;11.07;3.50;;;26.40;99.90;;;;;;5011916;28;20198;-77
2023/12/07 04:30:18;;;;;;;12.10;4.30;;;26.40;99.90;;;;;;5015646;28;20231;-79
2023/12/07 04:32:49;;;;;;;12.43;3.75;;;26.50;99.90;;;;;;5014839;28;20541;-78
2023/12/07 04:35:20;;;;;;;11.23;3.55;;;26.50;99.90;;;;;;5014269;28;20209;-77
2023/12/07 04:37:50;;;;;;;13.35;3.90;;;26.50;99.90;;;;;;5015280;28;20217;-79
2023/12/07 04:40:21;;;;;;;13.50;4.05;;;26.50;99.90;;;;;;5015107;28;20195;-79
2023/12/07 04:42:54;;;;;;;8.75;3.60;;;26.30;99.90;;;;;;5014399;28;20193;-78
2023/12/07 04:45:25;;;;;;;11.05;3.60;;;26.30;99.90;;;;;;5013514;28;20187;-78
2023/12/07 04:47:57;;;;;;;12.00;3.50;;;26.30;99.90;;;;;;5014910;28;20194;-77
2023/12/07 04:50:27;;;;;;;11.38;3.35;;;26.30;99.90;;;;;;5001656;28;20562;-77
2023/12/07 04:52:57;;;;;;;10.35;3.28;;;26.30;99.90;;;;;;5010004;28;20210;-77
2023/12/07 04:55:28;;;;;;;10.25;3.28;;;26.30;99.90;;;;;;5011419;28;20202;-78
2023/12/07 04:58:00;;;;;;;10.18;3.05;;;26.30;99.90;;;;;;5015138;28;20223;-77
2023/12/07 05:00:31;;;;;;;14.15;2.92;;;26.20;99.90;;;;;;5014326;28;20269;-77
2023/12/07 05:03:02;;;;;;;14.30;3.35;;;26.10;99.90;;;;;;5014700;28;20187;-77
2023/12/07 05:05:33;;;;;;;10.18;2.97;;;26.00;99.90;;;;;;5014907;28;20210;-78
2023/12/07 05:08:04;;;;;;;16.80;2.97;;;26.10;99.90;;;;;;5015178;28;20191;-77
2023/12/07 05:10:35;;;;;;;12.05;3.30;;;26.00;99.90;;;;;;5014991;28;20191;-78
2023/12/07 05:13:07;;;;;;;10.85;3.42;;;26.00;99.90;;;;;;5007010;28;20195;-78
2023/12/07 05:15:38;;;;;;;11.82;4.28;;;26.00;99.90;;;;;;5014442;28;20214;-79
2023/12/07 05:18:09;;;;;;;12.30;3.22;;;26.10;99.90;;;;;;5014800;28;20227;-78
2023/12/07 05:20:40;;;;;;;11.63;2.70;;;26.00;99.90;;;;;;5014762;28;20195;-78
2023/12/07 05:23:10;;;;;;;11.07;2.83;;;26.00;99.90;;;;;;5014576;28;20187;-76
2023/12/07 05:25:41;;;;;;;11.65;3.17;;;26.00;99.90;;;;;;5014282;28;20562;-77
2023/12/07 05:28:14;;;;;;;12.63;2.80;;;25.80;99.90;;;;;;5014607;28;20306;-78
2023/12/07 05:30:45;;;;;;;8.98;2.53;;;25.80;99.90;;;;;;5013905;28;20592;-79
2023/12/07 05:33:16;;;;;;;13.60;2.92;;;25.70;99.90;;;;;;5014626;28;20225;-78
2023/12/07 05:35:47;;;;;;;12.65;2.97;;;25.60;99.90;;;;;;5014561;28;20195;-76
2023/12/07 05:38:18;;;;;;;11.65;2.97;;;25.60;99.90;;;;;;5014519;28;20285;-85
2023/12/07 05:40:48;;;;;;;12.00;3.10;;;25.70;99.90;;;;;;5014702;28;20650;-86
2023/12/07 05:43:21;;;;;;;14.98;2.97;;;25.80;99.90;;;;;;5014503;28;20198;-78
2023/12/07 05:45:52;;;;;;;13.55;3.30;;;25.80;99.90;;;;;;5014371;28;20631;-79
2023/12/07 05:48:23;;;;;;;9.57;2.80;;;25.80;99.90;;;;;;5014038;28;20199;-79
2023/12/07 05:50:53;;;;;;;12.00;2.88;;;26.00;99.90;;;;;;5014248;28;20279;-79
2023/12/07 05:53:24;;;;;;;11.13;3.00;;;25.90;99.90;;;;;;5014179;28;20238;-78
2023/12/07 05:55:55;;;;;;;12.30;2.70;;;26.00;99.90;;;;;;5014300;28;20197;-79
2023/12/07 05:58:27;;;;;;;12.95;2.70;;;25.90;99.90;;;;;;5013639;28;20781;-78
2023/12/07 06:00:59;;;;;;;13.65;3.25;;;25.70;99.90;;;;;;5014188;28;20195;-78
2023/12/07 06:03:30;;;;;;;14.98;3.28;;;25.70;99.90;;;;;;5014088;28;20654;-78
2023/12/07 06:06:02;;;;;;;16.08;3.40;;;25.50;99.90;;;;;;5013948;28;20195;-80
2023/12/07 06:08:33;;;;;;;16.02;3.45;;;25.40;99.90;;;;;;5013340;28;20249;-77
2023/12/07 06:11:05;;;;;;;14.20;2.95;;;25.40;99.90;;;;;;5013378;28;20608;-78
2023/12/07 06:13:38;;;;;;;12.23;2.92;;;25.40;99.90;;;;;;5014094;28;20273;-78
2023/12/07 06:16:09;;;;;;;16.17;3.28;;;25.40;99.90;;;;;;5013670;28;20191;-80
2023/12/07 06:18:40;;;;;;;15.40;2.90;;;25.40;99.90;;;;;;5013748;28;20233;-80
2023/12/07 06:21:12;;;;;;;16.77;3.25;;;25.40;99.90;;;;;;5013175;28;20191;-79
2023/12/07 06:23:46;;;;;;;11.68;3.10;;;25.30;99.90;;;;;;5013798;28;20187;-78
2023/12/07 06:26:21;;;;;;;16.67;3.47;;;25.20;99.90;;;;;;5013531;28;20190;-79
2023/12/07 06:28:54;;;;;;;13.18;3.13;;;25.20;99.90;;;;;;5013124;28;20214;-79
2023/12/07 06:31:26;;;;;;;15.50;3.17;;;25.30;99.90;;;;;;5013482;28;20608;-79
2023/12/07 06:33:57;;;;;;;13.10;2.65;;;25.20;99.90;;;;;;5013912;28;20198;-79
2023/12/07 06:36:28;;;;;;;16.13;2.90;;;25.20;99.90;;;;;;5013600;28;20202;-79
2023/12/07 06:38:59;;;;;;;15.55;3.00;;;25.00;99.90;;;;;;5013574;28;20222;-79
2023/12/07 06:41:31;;;;;;;16.52;3.08;;;24.90;99.90;;;;;;5013303;28;20765;-79
2023/12/07 06:44:04;;;;;;;18.80;3.47;;;24.80;99.90;;;;;;5013221;28;20203;-81
2023/12/07 06:46:35;;;;;;;12.05;3.05;;;24.80;99.90;;;;;;5013518;28;20282;-78
2023/12/07 06:49:06;;;;;;;13.73;2.97;;;24.80;99.90;;;;;;5013149;28;20653;-79
2023/12/07 06:51:37;;;;;;;19.52;3.80;;;24.70;99.90;;;;;;5013294;28;20631;-80
2023/12/07 06:54:08;;;;;;;15.85;3.45;;;24.70;99.90;;;;;;5013213;28;20187;-79
2023/12/07 06:56:40;;;;;;;13.10;2.95;;;24.70;99.90;;;;;;5012566;28;20206;-78
2023/12/07 06:59:13;;;;;;;12.00;2.90;;;24.60;99.90;;;;;;5012721;28;20227;-79
2023/12/07 07:01:44;;;;;;;15.48;3.40;;;24.60;99.90;;;;;;5012633;28;20569;-78
2023/12/07 07:04:16;;;;;;;14.00;2.80;;;24.60;99.90;;;;;;5012903;28;20209;-79
2023/12/07 07:06:47;;;;;;;13.18;2.80;;;24.40;99.90;;;;;;5012772;28;20253;-79
2023/12/07 07:09:18;;;;;;;12.10;2.60;;;24.30;99.90;;;;;;5006550;28;20270;-79
2023/12/07 07:11:51;;;;;;;14.88;3.70;;;24.30;99.90;;;;;;5011611;28;20190;-78
2023/12/07 07:14:24;;;;;;;13.00;3.10;;;24.40;99.90;;;;;;5009746;28;20193;-77
2023/12/07 07:16:55;;;;;;;17.98;3.47;;;24.40;99.90;;;;;;5011658;28;20191;-77
2023/12/07 07:19:27;;;;;;;13.88;3.05;;;24.40;99.90;;;;;;5013229;28;20221;-78
2023/12/07 07:21:58;;;;;;;16.42;3.08;;;24.40;99.90;;;;;;5017005;28;20278;-77
